sensor_id;sensor_type;location;lat;lon;timestamp;temperature;humidity
84335;DHT22;74512;51.190;3.198;2024-01-16T00:01:05;6.20;1.00
84335;DHT22;74512;51.190;3.198;2024-01-16T00:03:31;6.40;1.00
84335;DHT22;74512;51.190;3.198;2024-01-16T00:05:57;6.50;1.00
84335;DHT22;74512;51.190;3.198;2024-01-16T00:08:23;6.70;1.00
84335;DHT22;74512;51.190;3.198;2024-01-16T00:10:49;6.60;1.00
84335;DHT22;74512;51.190;3.198;2024-01-16T00:13:15;6.80;1.00
84335;DHT22;74512;51.190;3.198;2024-01-16T00:15:40;6.80;1.00
84335;DHT22;74512;51.190;3.198;2024-01-16T00:18:09;7.00;1.00
84335;DHT22;74512;51.190;3.198;2024-01-16T00:20:35;7.10;1.00
84335;DHT22;74512;51.190;3.198;2024-01-16T00:23:01;7.20;1.00
84335;DHT22;74512;51.190;3.198;2024-01-16T00:25:26;7.30;1.00
84335;DHT22;74512;51.190;3.198;2024-01-16T00:27:52;7.40;1.00
84335;DHT22;74512;51.190;3.198;2024-01-16T00:30:18;7.40;1.00
84335;DHT22;74512;51.190;3.198;2024-01-16T00:32:44;7.30;1.00
84335;DHT22;74512;51.190;3.198;2024-01-16T00:35:09;7.30;1.00
84335;DHT22;74512;51.190;3.198;2024-01-16T00:37:38;7.40;1.00
84335;DHT22;74512;51.190;3.198;2024-01-16T00:40:05;7.30;1.00
84335;DHT22;74512;51.190;3.198;2024-01-16T00:42:34;7.40;1.00
84335;DHT22;74512;51.190;3.198;2024-01-16T00:44:59;7.40;1.00
84335;DHT22;74512;51.190;3.198;2024-01-16T00:47:25;7.50;1.00
84335;DHT22;74512;51.190;3.198;2024-01-16T00:49:51;7.40;1.00
84335;DHT22;74512;51.190;3.198;2024-01-16T00:52:16;7.40;1.00
84335;DHT22;74512;51.190;3.198;2024-01-16T00:54:43;7.40;1.00
84335;DHT22;74512;51.190;3.198;2024-01-16T00:57:09;7.50;1.00
84335;DHT22;74512;51.190;3.198;2024-01-16T00:59:34;7.50;1.00
84335;DHT22;74512;51.190;3.198;2024-01-16T01:02:00;7.20;1.00
84335;DHT22;74512;51.190;3.198;2024-01-16T01:04:26;7.20;1.00
84335;DHT22;74512;51.190;3.198;2024-01-16T01:06:51;7.30;1.00
84335;DHT22;74512;51.190;3.198;2024-01-16T01:09:17;7.30;1.00
84335;DHT22;74512;51.190;3.198;2024-01-16T01:11:43;6.80;1.00
84335;DHT22;74512;51.190;3.198;2024-01-16T01:14:09;6.20;1.00
84335;DHT22;74512;51.190;3.198;2024-01-16T01:16:34;6.30;1.00
84335;DHT22;74512;51.190;3.198;2024-01-16T01:19:00;6.50;1.00
84335;DHT22;74512;51.190;3.198;2024-01-16T01:21:26;6.00;1.00
84335;DHT22;74512;51.190;3.198;2024-01-16T01:23:52;6.30;1.00
84335;DHT22;74512;51.190;3.198;2024-01-16T01:26:18;6.40;1.00
84335;DHT22;74512;51.190;3.198;2024-01-16T01:28:44;6.60;1.00
84335;DHT22;74512;51.190;3.198;2024-01-16T01:31:11;6.70;1.00
84335;DHT22;74512;51.190;3.198;2024-01-16T01:33:37;6.50;1.00
84335;DHT22;74512;51.190;3.198;2024-01-16T01:36:03;6.40;1.00
84335;DHT22;74512;51.190;3.198;2024-01-16T01:38:28;6.40;1.00
84335;DHT22;74512;51.190;3.198;2024-01-16T01:40:54;6.20;1.00
84335;DHT22;74512;51.190;3.198;2024-01-16T01:43:24;6.30;1.00
84335;DHT22;74512;51.190;3.198;2024-01-16T01:48:28;6.20;1.00
84335;DHT22;74512;51.190;3.198;2024-01-16T01:50:54;6.40;1.00
84335;DHT22;74512;51.190;3.198;2024-01-16T01:53:19;6.40;1.00
84335;DHT22;74512;51.190;3.198;2024-01-16T01:55:46;6.50;1.00
84335;DHT22;74512;51.190;3.198;2024-01-16T01:58:12;6.40;1.00
84335;DHT22;74512;51.190;3.198;2024-01-16T02:00:38;6.50;1.00
84335;DHT22;74512;51.190;3.198;2024-01-16T02:03:04;6.50;1.00
84335;DHT22;74512;51.190;3.198;2024-01-16T02:05:30;6.50;1.00
84335;DHT22;74512;51.190;3.198;2024-01-16T02:07:57;6.50;1.00
84335;DHT22;74512;51.190;3.198;2024-01-16T02:10:23;6.20;1.00
84335;DHT22;74512;51.190;3.198;2024-01-16T02:12:50;6.20;1.00
84335;DHT22;74512;51.190;3.198;2024-01-16T02:15:15;6.00;1.00
84335;DHT22;74512;51.190;3.198;2024-01-16T02:17:41;5.60;1.00
84335;DHT22;74512;51.190;3.198;2024-01-16T02:20:07;6.00;1.00
84335;DHT22;74512;51.190;3.198;2024-01-16T02:22:33;6.20;1.00
84335;DHT22;74512;51.190;3.198;2024-01-16T02:25:01;6.40;1.00
84335;DHT22;74512;51.190;3.198;2024-01-16T02:27:26;6.70;1.00
84335;DHT22;74512;51.190;3.198;2024-01-16T02:29:52;6.50;1.00
84335;DHT22;74512;51.190;3.198;2024-01-16T02:32:18;6.70;1.00
84335;DHT22;74512;51.190;3.198;2024-01-16T02:34:43;6.70;1.00
84335;DHT22;74512;51.190;3.198;2024-01-16T02:37:09;6.70;1.00
84335;DHT22;74512;51.190;3.198;2024-01-16T02:39:34;6.80;1.00
84335;DHT22;74512;51.190;3.198;2024-01-16T02:42:00;6.70;1.00
84335;DHT22;74512;51.190;3.198;2024-01-16T02:44:26;6.70;1.00
84335;DHT22;74512;51.190;3.198;2024-01-16T02:46:52;6.70;1.00
84335;DHT22;74512;51.190;3.198;2024-01-16T02:49:17;6.70;1.00
84335;DHT22;74512;51.190;3.198;2024-01-16T02:51:43;6.80;1.00
84335;DHT22;74512;51.190;3.198;2024-01-16T02:54:09;6.70;1.00
84335;DHT22;74512;51.190;3.198;2024-01-16T02:56:34;6.70;1.00
84335;DHT22;74512;51.190;3.198;2024-01-16T02:59:00;6.60;1.00
84335;DHT22;74512;51.190;3.198;2024-01-16T03:01:26;6.60;1.00
84335;DHT22;74512;51.190;3.198;2024-01-16T03:03:52;6.20;1.00
84335;DHT22;74512;51.190;3.198;2024-01-16T03:06:22;6.10;1.00
84335;DHT22;74512;51.190;3.198;2024-01-16T03:08:49;6.10;1.00
84335;DHT22;74512;51.190;3.198;2024-01-16T03:11:14;6.20;1.00
84335;DHT22;74512;51.190;3.198;2024-01-16T03:13:40;6.30;1.00
84335;DHT22;74512;51.190;3.198;2024-01-16T03:16:10;6.50;1.00
84335;DHT22;74512;51.190;3.198;2024-01-16T03:18:37;6.60;1.00
84335;DHT22;74512;51.190;3.198;2024-01-16T03:21:05;6.40;1.00
84335;DHT22;74512;51.190;3.198;2024-01-16T03:23:31;6.40;1.00
84335;DHT22;74512;51.190;3.198;2024-01-16T03:25:56;6.40;1.00
84335;DHT22;74512;51.190;3.198;2024-01-16T03:28:22;6.50;1.00
84335;DHT22;74512;51.190;3.198;2024-01-16T03:30:48;6.30;1.00
84335;DHT22;74512;51.190;3.198;2024-01-16T03:33:14;6.40;1.00
84335;DHT22;74512;51.190;3.198;2024-01-16T03:35:39;6.40;1.00
84335;DHT22;74512;51.190;3.198;2024-01-16T03:38:05;6.30;1.00
84335;DHT22;74512;51.190;3.198;2024-01-16T03:40:31;6.30;1.00
84335;DHT22;74512;51.190;3.198;2024-01-16T03:43:00;6.30;1.00
84335;DHT22;74512;51.190;3.198;2024-01-16T03:45:26;6.30;1.00
84335;DHT22;74512;51.190;3.198;2024-01-16T03:47:51;6.30;1.00
84335;DHT22;74512;51.190;3.198;2024-01-16T03:50:17;6.40;1.00
84335;DHT22;74512;51.190;3.198;2024-01-16T03:52:42;6.40;1.00
84335;DHT22;74512;51.190;3.198;2024-01-16T03:55:08;6.30;1.00
84335;DHT22;74512;51.190;3.198;2024-01-16T03:57:34;6.20;1.00
84335;DHT22;74512;51.190;3.198;2024-01-16T04:00:00;6.30;1.00
84335;DHT22;74512;51.190;3.198;2024-01-16T04:02:26;6.40;1.00
84335;DHT22;74512;51.190;3.198;2024-01-16T04:04:51;6.40;1.00
84335;DHT22;74512;51.190;3.198;2024-01-16T04:07:17;6.00;1.00
84335;DHT22;74512;51.190;3.198;2024-01-16T04:09:43;6.00;1.00
84335;DHT22;74512;51.190;3.198;2024-01-16T04:12:09;5.60;1.00
84335;DHT22;74512;51.190;3.198;2024-01-16T04:14:35;5.50;1.00
84335;DHT22;74512;51.190;3.198;2024-01-16T04:17:01;5.30;1.00
84335;DHT22;74512;51.190;3.198;2024-01-16T04:19:27;5.90;1.00
84335;DHT22;74512;51.190;3.198;2024-01-16T04:21:53;6.10;1.00
84335;DHT22;74512;51.190;3.198;2024-01-16T04:24:19;6.30;1.00
84335;DHT22;74512;51.190;3.198;2024-01-16T04:26:45;6.20;1.00
84335;DHT22;74512;51.190;3.198;2024-01-16T04:29:10;6.40;1.00
84335;DHT22;74512;51.190;3.198;2024-01-16T04:31:40;6.20;1.00
84335;DHT22;74512;51.190;3.198;2024-01-16T04:34:09;6.20;1.00
84335;DHT22;74512;51.190;3.198;2024-01-16T04:36:34;6.30;1.00
84335;DHT22;74512;51.190;3.198;2024-01-16T04:39:00;6.30;1.00
84335;DHT22;74512;51.190;3.198;2024-01-16T04:41:26;6.40;1.00
84335;DHT22;74512;51.190;3.198;2024-01-16T04:43:51;6.50;1.00
84335;DHT22;74512;51.190;3.198;2024-01-16T04:46:17;6.50;1.00
84335;DHT22;74512;51.190;3.198;2024-01-16T04:48:42;6.20;1.00
84335;DHT22;74512;51.190;3.198;2024-01-16T04:51:08;6.30;1.00
84335;DHT22;74512;51.190;3.198;2024-01-16T04:53:34;6.20;1.00
84335;DHT22;74512;51.190;3.198;2024-01-16T04:56:00;6.20;1.00
84335;DHT22;74512;51.190;3.198;2024-01-16T04:58:25;6.20;1.00
84335;DHT22;74512;51.190;3.198;2024-01-16T05:00:51;6.20;1.00
84335;DHT22;74512;51.190;3.198;2024-01-16T05:03:17;6.20;1.00
84335;DHT22;74512;51.190;3.198;2024-01-16T05:05:42;6.30;1.00
84335;DHT22;74512;51.190;3.198;2024-01-16T05:08:08;6.30;1.00
84335;DHT22;74512;51.190;3.198;2024-01-16T05:10:34;6.30;1.00
84335;DHT22;74512;51.190;3.198;2024-01-16T05:13:00;6.20;1.00
84335;DHT22;74512;51.190;3.198;2024-01-16T05:15:25;6.20;1.00
84335;DHT22;74512;51.190;3.198;2024-01-16T05:17:51;6.20;1.00
84335;DHT22;74512;51.190;3.198;2024-01-16T05:20:19;6.20;1.00
84335;DHT22;74512;51.190;3.198;2024-01-16T05:22:45;6.10;1.00
84335;DHT22;74512;51.190;3.198;2024-01-16T05:25:10;6.00;1.00
84335;DHT22;74512;51.190;3.198;2024-01-16T05:27:36;6.00;1.00
84335;DHT22;74512;51.190;3.198;2024-01-16T05:30:01;6.10;1.00
84335;DHT22;74512;51.190;3.198;2024-01-16T05:32:27;6.10;1.00
84335;DHT22;74512;51.190;3.198;2024-01-16T05:34:53;6.10;1.00
84335;DHT22;74512;51.190;3.198;2024-01-16T05:37:19;5.90;1.00
84335;DHT22;74512;51.190;3.198;2024-01-16T05:39:45;6.00;1.00
84335;DHT22;74512;51.190;3.198;2024-01-16T05:42:11;5.90;1.00
84335;DHT22;74512;51.190;3.198;2024-01-16T05:44:37;6.10;1.00
84335;DHT22;74512;51.190;3.198;2024-01-16T05:47:04;5.90;1.00
84335;DHT22;74512;51.190;3.198;2024-01-16T05:49:30;6.10;1.00
84335;DHT22;74512;51.190;3.198;2024-01-16T05:51:55;6.00;1.00
84335;DHT22;74512;51.190;3.198;2024-01-16T05:54:21;6.00;1.00
84335;DHT22;74512;51.190;3.198;2024-01-16T05:56:47;6.10;1.00
84335;DHT22;74512;51.190;3.198;2024-01-16T05:59:12;6.00;1.00
84335;DHT22;74512;51.190;3.198;2024-01-16T06:01:38;5.90;1.00
84335;DHT22;74512;51.190;3.198;2024-01-16T06:04:04;5.60;1.00
84335;DHT22;74512;51.190;3.198;2024-01-16T06:06:30;5.80;1.00
84335;DHT22;74512;51.190;3.198;2024-01-16T06:08:55;5.90;1.00
84335;DHT22;74512;51.190;3.198;2024-01-16T06:11:40;5.90;1.00
84335;DHT22;74512;51.190;3.198;2024-01-16T06:14:07;5.90;1.00
84335;DHT22;74512;51.190;3.198;2024-01-16T06:16:33;6.00;1.00
84335;DHT22;74512;51.190;3.198;2024-01-16T06:18:58;5.80;1.00
84335;DHT22;74512;51.190;3.198;2024-01-16T06:21:25;5.70;1.00
84335;DHT22;74512;51.190;3.198;2024-01-16T06:23:50;5.90;1.00
84335;DHT22;74512;51.190;3.198;2024-01-16T06:26:16;5.70;1.00
84335;DHT22;74512;51.190;3.198;2024-01-16T06:28:41;6.20;1.00
84335;DHT22;74512;51.190;3.198;2024-01-16T06:31:10;6.30;1.00
84335;DHT22;74512;51.190;3.198;2024-01-16T06:33:37;5.80;1.00
84335;DHT22;74512;51.190;3.198;2024-01-16T06:36:03;5.90;1.00
84335;DHT22;74512;51.190;3.198;2024-01-16T06:38:32;5.90;1.00
84335;DHT22;74512;51.190;3.198;2024-01-16T06:40:58;6.00;1.00
84335;DHT22;74512;51.190;3.198;2024-01-16T06:43:24;6.00;1.00
84335;DHT22;74512;51.190;3.198;2024-01-16T06:45:49;6.00;1.00
84335;DHT22;74512;51.190;3.198;2024-01-16T06:48:15;5.90;1.00
84335;DHT22;74512;51.190;3.198;2024-01-16T06:50:41;5.90;1.00
84335;DHT22;74512;51.190;3.198;2024-01-16T06:53:07;6.00;1.00
84335;DHT22;74512;51.190;3.198;2024-01-16T06:55:33;5.80;1.00
84335;DHT22;74512;51.190;3.198;2024-01-16T06:57:58;5.40;1.00
84335;DHT22;74512;51.190;3.198;2024-01-16T07:00:24;5.60;1.00
84335;DHT22;74512;51.190;3.198;2024-01-16T07:02:52;5.60;1.00
84335;DHT22;74512;51.190;3.198;2024-01-16T07:05:19;5.60;1.00
84335;DHT22;74512;51.190;3.198;2024-01-16T07:07:45;5.50;1.00
84335;DHT22;74512;51.190;3.198;2024-01-16T07:10:11;5.40;1.00
84335;DHT22;74512;51.190;3.198;2024-01-16T07:12:44;5.50;1.00
84335;DHT22;74512;51.190;3.198;2024-01-16T07:15:10;5.50;1.00
84335;DHT22;74512;51.190;3.198;2024-01-16T07:17:36;5.50;1.00
84335;DHT22;74512;51.190;3.198;2024-01-16T07:20:01;5.60;1.00
84335;DHT22;74512;51.190;3.198;2024-01-16T07:22:28;5.40;1.00
84335;DHT22;74512;51.190;3.198;2024-01-16T07:24:53;5.40;1.00
84335;DHT22;74512;51.190;3.198;2024-01-16T07:27:19;5.70;1.00
84335;DHT22;74512;51.190;3.198;2024-01-16T07:29:45;5.80;1.00
84335;DHT22;74512;51.190;3.198;2024-01-16T07:32:10;5.80;1.00
84335;DHT22;74512;51.190;3.198;2024-01-16T07:34:36;5.80;1.00
84335;DHT22;74512;51.190;3.198;2024-01-16T07:37:02;5.80;1.00
84335;DHT22;74512;51.190;3.198;2024-01-16T07:39:27;5.80;1.00
84335;DHT22;74512;51.190;3.198;2024-01-16T07:41:53;5.90;1.00
84335;DHT22;74512;51.190;3.198;2024-01-16T07:44:19;5.80;1.00
84335;DHT22;74512;51.190;3.198;2024-01-16T07:46:44;5.90;1.00
84335;DHT22;74512;51.190;3.198;2024-01-16T07:49:10;5.80;1.00
84335;DHT22;74512;51.190;3.198;2024-01-16T07:51:36;5.50;1.00
84335;DHT22;74512;51.190;3.198;2024-01-16T07:54:10;5.60;1.00
84335;DHT22;74512;51.190;3.198;2024-01-16T07:56:36;5.60;1.00
84335;DHT22;74512;51.190;3.198;2024-01-16T07:59:02;5.50;1.00
84335;DHT22;74512;51.190;3.198;2024-01-16T08:01:29;5.60;1.00
84335;DHT22;74512;51.190;3.198;2024-01-16T08:03:55;5.60;1.00
84335;DHT22;74512;51.190;3.198;2024-01-16T08:06:22;5.70;1.00
84335;DHT22;74512;51.190;3.198;2024-01-16T08:08:48;5.70;1.00
84335;DHT22;74512;51.190;3.198;2024-01-16T08:11:15;5.50;1.00
84335;DHT22;74512;51.190;3.198;2024-01-16T08:13:40;5.70;1.00
84335;DHT22;74512;51.190;3.198;2024-01-16T08:16:07;5.60;1.00
84335;DHT22;74512;51.190;3.198;2024-01-16T08:18:33;5.40;1.00
84335;DHT22;74512;51.190;3.198;2024-01-16T08:20:59;5.60;1.00
84335;DHT22;74512;51.190;3.198;2024-01-16T08:23:24;5.40;1.00
84335;DHT22;74512;51.190;3.198;2024-01-16T08:25:50;5.40;1.00
84335;DHT22;74512;51.190;3.198;2024-01-16T08:28:17;5.40;1.00
84335;DHT22;74512;51.190;3.198;2024-01-16T08:30:43;5.40;1.00
84335;DHT22;74512;51.190;3.198;2024-01-16T08:33:09;5.30;1.00
84335;DHT22;74512;51.190;3.198;2024-01-16T08:35:35;5.30;1.00
84335;DHT22;74512;51.190;3.198;2024-01-16T08:38:01;5.40;1.00
84335;DHT22;74512;51.190;3.198;2024-01-16T08:40:26;5.40;1.00
84335;DHT22;74512;51.190;3.198;2024-01-16T08:42:52;5.20;1.00
84335;DHT22;74512;51.190;3.198;2024-01-16T08:45:23;5.10;1.00
84335;DHT22;74512;51.190;3.198;2024-01-16T08:47:49;5.10;1.00
84335;DHT22;74512;51.190;3.198;2024-01-16T08:50:18;5.10;1.00
84335;DHT22;74512;51.190;3.198;2024-01-16T08:52:44;5.20;1.00
84335;DHT22;74512;51.190;3.198;2024-01-16T08:55:09;5.20;1.00
84335;DHT22;74512;51.190;3.198;2024-01-16T08:57:37;5.50;1.00
84335;DHT22;74512;51.190;3.198;2024-01-16T09:00:06;5.60;1.00
84335;DHT22;74512;51.190;3.198;2024-01-16T09:02:36;5.70;1.00
84335;DHT22;74512;51.190;3.198;2024-01-16T09:05:02;5.60;1.00
84335;DHT22;74512;51.190;3.198;2024-01-16T09:07:28;5.80;1.00
84335;DHT22;74512;51.190;3.198;2024-01-16T09:09:53;5.50;1.00
84335;DHT22;74512;51.190;3.198;2024-01-16T09:12:19;5.60;1.00
84335;DHT22;74512;51.190;3.198;2024-01-16T09:14:45;5.60;1.00
84335;DHT22;74512;51.190;3.198;2024-01-16T09:17:11;5.40;1.00
84335;DHT22;74512;51.190;3.198;2024-01-16T09:19:37;5.30;1.00
84335;DHT22;74512;51.190;3.198;2024-01-16T09:22:02;5.60;1.00
84335;DHT22;74512;51.190;3.198;2024-01-16T09:24:29;5.60;1.00
84335;DHT22;74512;51.190;3.198;2024-01-16T09:26:55;5.90;1.00
84335;DHT22;74512;51.190;3.198;2024-01-16T09:29:20;5.80;1.00
84335;DHT22;74512;51.190;3.198;2024-01-16T09:31:47;5.70;1.00
84335;DHT22;74512;51.190;3.198;2024-01-16T09:34:13;5.80;1.00
84335;DHT22;74512;51.190;3.198;2024-01-16T09:36:39;5.70;1.00
84335;DHT22;74512;51.190;3.198;2024-01-16T09:39:06;5.80;1.00
84335;DHT22;74512;51.190;3.198;2024-01-16T09:41:39;5.60;1.00
84335;DHT22;74512;51.190;3.198;2024-01-16T09:44:05;5.70;1.00
84335;DHT22;74512;51.190;3.198;2024-01-16T09:46:33;5.90;1.00
84335;DHT22;74512;51.190;3.198;2024-01-16T09:49:00;5.80;1.00
84335;DHT22;74512;51.190;3.198;2024-01-16T09:51:27;5.70;1.00
84335;DHT22;74512;51.190;3.198;2024-01-16T09:53:53;5.80;1.00
84335;DHT22;74512;51.190;3.198;2024-01-16T09:56:22;5.80;1.00
84335;DHT22;74512;51.190;3.198;2024-01-16T09:58:50;5.70;1.00
84335;DHT22;74512;51.190;3.198;2024-01-16T10:01:19;5.70;1.00
84335;DHT22;74512;51.190;3.198;2024-01-16T10:03:45;5.40;1.00
84335;DHT22;74512;51.190;3.198;2024-01-16T10:06:12;5.50;1.00
84335;DHT22;74512;51.190;3.198;2024-01-16T10:08:39;5.50;1.00
84335;DHT22;74512;51.190;3.198;2024-01-16T10:11:05;5.50;1.00
84335;DHT22;74512;51.190;3.198;2024-01-16T10:13:35;5.50;1.00
84335;DHT22;74512;51.190;3.198;2024-01-16T10:16:02;5.50;1.00
84335;DHT22;74512;51.190;3.198;2024-01-16T10:18:29;5.40;1.00
84335;DHT22;74512;51.190;3.198;2024-01-16T10:20:56;5.40;1.00
84335;DHT22;74512;51.190;3.198;2024-01-16T10:23:32;5.40;1.00
84335;DHT22;74512;51.190;3.198;2024-01-16T10:26:05;5.50;1.00
84335;DHT22;74512;51.190;3.198;2024-01-16T10:28:32;5.30;1.00
84335;DHT22;74512;51.190;3.198;2024-01-16T10:31:04;5.40;1.00
84335;DHT22;74512;51.190;3.198;2024-01-16T10:33:30;5.40;1.00
84335;DHT22;74512;51.190;3.198;2024-01-16T10:36:15;5.50;1.00
84335;DHT22;74512;51.190;3.198;2024-01-16T10:38:43;5.50;1.00
84335;DHT22;74512;51.190;3.198;2024-01-16T10:41:16;5.60;1.00
84335;DHT22;74512;51.190;3.198;2024-01-16T10:43:43;5.60;1.00
84335;DHT22;74512;51.190;3.198;2024-01-16T10:46:17;5.80;1.00
84335;DHT22;74512;51.190;3.198;2024-01-16T10:48:45;5.80;1.00
84335;DHT22;74512;51.190;3.198;2024-01-16T10:51:23;5.80;1.00
84335;DHT22;74512;51.190;3.198;2024-01-16T10:56:23;5.80;1.00
84335;DHT22;74512;51.190;3.198;2024-01-16T11:01:41;5.80;1.00
84335;DHT22;74512;51.190;3.198;2024-01-16T11:04:10;5.80;1.00
84335;DHT22;74512;51.190;3.198;2024-01-16T11:06:37;5.80;1.00
84335;DHT22;74512;51.190;3.198;2024-01-16T11:09:03;5.50;1.00
84335;DHT22;74512;51.190;3.198;2024-01-16T11:11:29;5.50;1.00
84335;DHT22;74512;51.190;3.198;2024-01-16T11:13:55;5.30;1.00
84335;DHT22;74512;51.190;3.198;2024-01-16T11:16:23;5.20;1.00
84335;DHT22;74512;51.190;3.198;2024-01-16T11:18:49;5.30;1.00
84335;DHT22;74512;51.190;3.198;2024-01-16T11:21:16;5.40;1.00
84335;DHT22;74512;51.190;3.198;2024-01-16T11:23:42;5.50;1.00
84335;DHT22;74512;51.190;3.198;2024-01-16T11:28:54;5.30;1.00
84335;DHT22;74512;51.190;3.198;2024-01-16T11:31:32;5.40;1.00
84335;DHT22;74512;51.190;3.198;2024-01-16T11:33:59;5.50;1.00
84335;DHT22;74512;51.190;3.198;2024-01-16T11:36:50;5.60;1.00
84335;DHT22;74512;51.190;3.198;2024-01-16T11:39:25;5.50;1.00
84335;DHT22;74512;51.190;3.198;2024-01-16T11:41:57;5.60;1.00
84335;DHT22;74512;51.190;3.198;2024-01-16T11:44:42;5.70;1.00
84335;DHT22;74512;51.190;3.198;2024-01-16T11:47:09;5.70;1.00
84335;DHT22;74512;51.190;3.198;2024-01-16T11:49:36;5.70;1.00
84335;DHT22;74512;51.190;3.198;2024-01-16T11:52:02;5.70;1.00
84335;DHT22;74512;51.190;3.198;2024-01-16T11:54:27;5.60;1.00
84335;DHT22;74512;51.190;3.198;2024-01-16T12:00:03;5.80;1.00
84335;DHT22;74512;51.190;3.198;2024-01-16T12:05:11;5.80;1.00
84335;DHT22;74512;51.190;3.198;2024-01-16T12:07:50;5.80;1.00
84335;DHT22;74512;51.190;3.198;2024-01-16T12:10:21;5.70;1.00
84335;DHT22;74512;51.190;3.198;2024-01-16T12:12:48;5.70;1.00
84335;DHT22;74512;51.190;3.198;2024-01-16T12:15:18;5.70;1.00
84335;DHT22;74512;51.190;3.198;2024-01-16T12:18:00;5.80;1.00
84335;DHT22;74512;51.190;3.198;2024-01-16T12:20:29;5.80;1.00
84335;DHT22;74512;51.190;3.198;2024-01-16T12:22:59;5.70;1.00
84335;DHT22;74512;51.190;3.198;2024-01-16T12:25:26;5.80;1.00
84335;DHT22;74512;51.190;3.198;2024-01-16T12:28:03;5.80;1.00
84335;DHT22;74512;51.190;3.198;2024-01-16T12:30:33;5.90;1.00
84335;DHT22;74512;51.190;3.198;2024-01-16T12:33:11;5.70;1.00
84335;DHT22;74512;51.190;3.198;2024-01-16T12:35:41;5.80;1.00
84335;DHT22;74512;51.190;3.198;2024-01-16T12:38:09;5.60;1.00
84335;DHT22;74512;51.190;3.198;2024-01-16T12:40:42;5.60;1.00
84335;DHT22;74512;51.190;3.198;2024-01-16T12:43:09;5.50;1.00
84335;DHT22;74512;51.190;3.198;2024-01-16T12:45:35;5.50;1.00
84335;DHT22;74512;51.190;3.198;2024-01-16T12:48:02;5.50;1.00
84335;DHT22;74512;51.190;3.198;2024-01-16T12:50:30;5.90;1.00
84335;DHT22;74512;51.190;3.198;2024-01-16T12:53:10;6.00;1.00
84335;DHT22;74512;51.190;3.198;2024-01-16T12:55:37;6.20;1.00
84335;DHT22;74512;51.190;3.198;2024-01-16T13:00:51;6.10;1.00
84335;DHT22;74512;51.190;3.198;2024-01-16T13:03:22;5.90;1.00
84335;DHT22;74512;51.190;3.198;2024-01-16T13:06:17;6.10;1.00
84335;DHT22;74512;51.190;3.198;2024-01-16T13:08:43;6.00;1.00
84335;DHT22;74512;51.190;3.198;2024-01-16T13:11:09;6.00;1.00
84335;DHT22;74512;51.190;3.198;2024-01-16T13:13:36;6.00;1.00
84335;DHT22;74512;51.190;3.198;2024-01-16T13:16:04;6.00;1.00
84335;DHT22;74512;51.190;3.198;2024-01-16T13:18:34;6.00;1.00
84335;DHT22;74512;51.190;3.198;2024-01-16T13:21:00;5.90;1.00
84335;DHT22;74512;51.190;3.198;2024-01-16T13:23:27;5.80;1.00
84335;DHT22;74512;51.190;3.198;2024-01-16T13:25:54;6.00;1.00
84335;DHT22;74512;51.190;3.198;2024-01-16T13:28:28;6.00;1.00
84335;DHT22;74512;51.190;3.198;2024-01-16T13:30:55;5.90;1.00
84335;DHT22;74512;51.190;3.198;2024-01-16T13:33:23;6.00;1.00
84335;DHT22;74512;51.190;3.198;2024-01-16T13:35:53;6.00;1.00
84335;DHT22;74512;51.190;3.198;2024-01-16T13:38:20;6.00;1.00
84335;DHT22;74512;51.190;3.198;2024-01-16T13:40:46;6.00;1.00
84335;DHT22;74512;51.190;3.198;2024-01-16T13:43:11;6.10;1.00
84335;DHT22;74512;51.190;3.198;2024-01-16T13:45:38;6.10;1.00
84335;DHT22;74512;51.190;3.198;2024-01-16T13:48:05;6.00;1.00
84335;DHT22;74512;51.190;3.198;2024-01-16T13:50:32;5.90;1.00
84335;DHT22;74512;51.190;3.198;2024-01-16T13:52:58;5.90;1.00
84335;DHT22;74512;51.190;3.198;2024-01-16T13:55:24;5.90;1.00
84335;DHT22;74512;51.190;3.198;2024-01-16T13:57:50;5.90;1.00
84335;DHT22;74512;51.190;3.198;2024-01-16T14:00:16;5.80;1.00
84335;DHT22;74512;51.190;3.198;2024-01-16T14:02:43;5.80;1.00
84335;DHT22;74512;51.190;3.198;2024-01-16T14:05:10;5.80;1.00
84335;DHT22;74512;51.190;3.198;2024-01-16T14:07:39;5.60;1.00
84335;DHT22;74512;51.190;3.198;2024-01-16T14:10:08;5.60;1.00
84335;DHT22;74512;51.190;3.198;2024-01-16T14:12:35;5.90;1.00
84335;DHT22;74512;51.190;3.198;2024-01-16T14:15:01;5.90;1.00
84335;DHT22;74512;51.190;3.198;2024-01-16T14:17:30;6.10;1.00
84335;DHT22;74512;51.190;3.198;2024-01-16T14:19:56;6.30;1.00
84335;DHT22;74512;51.190;3.198;2024-01-16T14:22:21;6.40;1.00
84335;DHT22;74512;51.190;3.198;2024-01-16T14:24:47;6.40;1.00
84335;DHT22;74512;51.190;3.198;2024-01-16T14:27:16;6.50;1.00
84335;DHT22;74512;51.190;3.198;2024-01-16T14:29:42;6.20;1.00
84335;DHT22;74512;51.190;3.198;2024-01-16T14:32:08;6.20;1.00
84335;DHT22;74512;51.190;3.198;2024-01-16T14:34:34;6.40;1.00
84335;DHT22;74512;51.190;3.198;2024-01-16T14:36:59;6.40;1.00
84335;DHT22;74512;51.190;3.198;2024-01-16T14:39:25;6.50;1.00
84335;DHT22;74512;51.190;3.198;2024-01-16T14:41:50;6.60;1.00
84335;DHT22;74512;51.190;3.198;2024-01-16T14:44:19;6.70;1.00
84335;DHT22;74512;51.190;3.198;2024-01-16T14:46:45;6.60;1.00
84335;DHT22;74512;51.190;3.198;2024-01-16T14:49:10;6.50;1.00
84335;DHT22;74512;51.190;3.198;2024-01-16T14:51:37;6.70;1.00
84335;DHT22;74512;51.190;3.198;2024-01-16T14:54:03;6.30;1.00
84335;DHT22;74512;51.190;3.198;2024-01-16T14:56:30;6.20;1.00
84335;DHT22;74512;51.190;3.198;2024-01-16T14:58:57;5.80;1.00
84335;DHT22;74512;51.190;3.198;2024-01-16T15:01:23;6.10;1.00
84335;DHT22;74512;51.190;3.198;2024-01-16T15:03:48;6.30;1.00
84335;DHT22;74512;51.190;3.198;2024-01-16T15:06:14;6.50;1.00
84335;DHT22;74512;51.190;3.198;2024-01-16T15:08:42;6.50;1.00
84335;DHT22;74512;51.190;3.198;2024-01-16T15:11:08;6.30;1.00
84335;DHT22;74512;51.190;3.198;2024-01-16T15:13:34;6.50;1.00
84335;DHT22;74512;51.190;3.198;2024-01-16T15:16:00;6.60;1.00
84335;DHT22;74512;51.190;3.198;2024-01-16T15:18:25;6.70;1.00
84335;DHT22;74512;51.190;3.198;2024-01-16T15:20:52;6.80;1.00
84335;DHT22;74512;51.190;3.198;2024-01-16T15:23:18;6.80;1.00
84335;DHT22;74512;51.190;3.198;2024-01-16T15:25:43;7.00;1.00
84335;DHT22;74512;51.190;3.198;2024-01-16T15:28:09;6.80;1.00
84335;DHT22;74512;51.190;3.198;2024-01-16T15:30:35;6.80;1.00
84335;DHT22;74512;51.190;3.198;2024-01-16T15:33:04;6.70;1.00
84335;DHT22;74512;51.190;3.198;2024-01-16T15:35:33;6.60;1.00
84335;DHT22;74512;51.190;3.198;2024-01-16T15:37:58;6.80;1.00
84335;DHT22;74512;51.190;3.198;2024-01-16T15:40:24;6.90;1.00
84335;DHT22;74512;51.190;3.198;2024-01-16T15:42:50;6.80;1.00
84335;DHT22;74512;51.190;3.198;2024-01-16T15:45:16;6.50;1.00
84335;DHT22;74512;51.190;3.198;2024-01-16T15:47:42;6.50;1.00
84335;DHT22;74512;51.190;3.198;2024-01-16T15:50:08;6.10;1.00
84335;DHT22;74512;51.190;3.198;2024-01-16T15:52:34;6.20;1.00
84335;DHT22;74512;51.190;3.198;2024-01-16T15:55:00;6.10;1.00
84335;DHT22;74512;51.190;3.198;2024-01-16T15:57:29;6.20;1.00
84335;DHT22;74512;51.190;3.198;2024-01-16T15:59:55;6.00;1.00
84335;DHT22;74512;51.190;3.198;2024-01-16T16:02:20;5.90;1.00
84335;DHT22;74512;51.190;3.198;2024-01-16T16:04:46;5.40;1.00
84335;DHT22;74512;51.190;3.198;2024-01-16T16:07:12;5.10;1.00
84335;DHT22;74512;51.190;3.198;2024-01-16T16:09:38;5.30;1.00
84335;DHT22;74512;51.190;3.198;2024-01-16T16:12:05;5.30;1.00
84335;DHT22;74512;51.190;3.198;2024-01-16T16:14:32;5.30;1.00
84335;DHT22;74512;51.190;3.198;2024-01-16T16:16:57;5.50;1.00
84335;DHT22;74512;51.190;3.198;2024-01-16T16:19:28;5.70;1.00